createdAt,value
2019-04-29T00:02:30.878Z,11.10
2019-04-29T00:05:32.382Z,11.10
2019-04-29T00:08:33.673Z,11.10
2019-04-29T00:11:35.759Z,11.10
2019-04-29T00:14:38.994Z,11.10
2019-04-29T00:17:48.270Z,11.10
2019-04-29T00:20:50.841Z,11.10
2019-04-29T00:24:03.290Z,11.10
2019-04-29T00:26:55.534Z,11.10
2019-04-29T00:29:56.994Z,11.10
2019-04-29T00:32:58.366Z,11.10
2019-04-29T00:35:59.861Z,11.10
2019-04-29T00:39:20.209Z,11.10
2019-04-29T00:42:26.894Z,11.10
2019-04-29T00:45:28.275Z,11.10
2019-04-29T00:48:29.788Z,11.10
2019-04-29T00:51:31.052Z,11.10
2019-04-29T00:54:36.173Z,11.10
2019-04-29T00:57:37.449Z,11.10
2019-04-29T01:00:42.722Z,11.10
2019-04-29T01:03:44.010Z,11.10
2019-04-29T01:06:45.486Z,11.10
2019-04-29T01:09:46.954Z,11.10
2019-04-29T01:12:50.594Z,11.20
2019-04-29T01:15:51.879Z,11.20
2019-04-29T01:18:53.484Z,11.20
2019-04-29T01:21:54.849Z,11.10
2019-04-29T01:24:56.632Z,11.20
2019-04-29T01:28:02.639Z,11.20
2019-04-29T01:31:08.742Z,11.20
2019-04-29T01:34:11.938Z,11.20
2019-04-29T01:37:13.241Z,11.20
2019-04-29T01:40:25.252Z,11.20
2019-04-29T01:43:28.645Z,11.20
2019-04-29T01:46:29.925Z,11.20
2019-04-29T01:49:31.393Z,11.20
2019-04-29T01:52:32.674Z,11.20
2019-04-29T01:55:34.153Z,11.20
2019-04-29T01:58:35.437Z,11.20
2019-04-29T02:01:36.922Z,11.20
2019-04-29T02:04:38.194Z,11.20
2019-04-29T02:07:39.685Z,11.20
2019-04-29T02:10:41.549Z,11.20
2019-04-29T02:13:42.846Z,11.20
2019-04-29T02:16:44.569Z,11.20
2019-04-29T02:19:45.856Z,11.30
2019-04-29T02:23:01.694Z,11.20
2019-04-29T02:26:03.077Z,11.20
2019-04-29T02:29:04.879Z,11.20
2019-04-29T02:32:06.158Z,11.30
2019-04-29T02:35:07.957Z,11.30
2019-04-29T02:38:12.077Z,11.30
2019-04-29T02:41:17.988Z,11.30
2019-04-29T02:44:19.955Z,11.30
2019-04-29T02:47:21.396Z,11.20
2019-04-29T02:50:22.694Z,11.30
2019-04-29T02:53:24.180Z,11.30
2019-04-29T02:56:25.987Z,11.30
2019-04-29T02:59:41.114Z,11.30
2019-04-29T03:02:44.422Z,11.30
2019-04-29T03:05:47.626Z,11.30
2019-04-29T03:08:49.129Z,11.30
2019-04-29T03:11:51.037Z,11.30
2019-04-29T03:14:53.258Z,11.30
2019-04-29T03:17:54.559Z,11.30
2019-04-29T03:21:00.476Z,11.30
2019-04-29T03:24:01.772Z,11.30
2019-04-29T03:27:03.881Z,11.30
2019-04-29T03:30:05.273Z,11.30
2019-04-29T03:33:06.792Z,11.30
2019-04-29T03:36:08.070Z,11.30
2019-04-29T03:39:09.359Z,11.30
2019-04-29T03:42:10.662Z,11.40
2019-04-29T03:45:12.157Z,11.30
2019-04-29T03:48:13.454Z,11.40
2019-04-29T03:51:14.936Z,11.40
2019-04-29T03:54:16.219Z,11.40
2019-04-29T03:57:18.603Z,11.40
2019-04-29T04:00:20.011Z,11.40
2019-04-29T04:03:35.493Z,11.40
2019-04-29T04:06:41.651Z,11.40
2019-04-29T04:09:43.057Z,11.50
2019-04-29T04:12:44.358Z,11.50
2019-04-29T04:15:46.689Z,11.50
2019-04-29T04:18:47.973Z,11.50
2019-04-29T04:21:49.447Z,11.50
2019-04-29T04:24:52.172Z,11.50
2019-04-29T04:27:54.301Z,11.50
2019-04-29T04:30:55.599Z,11.50
2019-04-29T04:33:57.252Z,11.50
2019-04-29T04:37:00.473Z,11.50
2019-04-29T04:40:01.821Z,11.50
2019-04-29T04:43:03.127Z,11.50
2019-04-29T04:46:04.615Z,11.60
2019-04-29T04:49:05.878Z,11.50
2019-04-29T04:52:08.148Z,11.60
2019-04-29T04:55:10.317Z,11.60
2019-04-29T04:58:11.618Z,11.70
2019-04-29T05:01:13.104Z,11.60
2019-04-29T05:04:14.487Z,11.60
2019-04-29T05:07:15.887Z,11.60
2019-04-29T05:10:17.158Z,11.60
2019-04-29T05:13:27.915Z,11.60
2019-04-29T05:16:22.668Z,11.60
2019-04-29T05:19:24.139Z,11.60
2019-04-29T05:22:25.425Z,11.60
2019-04-29T05:25:29.505Z,11.60
2019-04-29T05:28:30.778Z,11.70
2019-04-29T05:31:32.254Z,11.60
2019-04-29T05:34:35.441Z,11.60
2019-04-29T05:37:47.645Z,11.70
2019-04-29T05:40:50.634Z,11.80
2019-04-29T05:43:56.531Z,11.80
2019-04-29T05:47:02.634Z,11.80
2019-04-29T05:50:24.154Z,11.80
2019-04-29T05:53:28.076Z,11.80
2019-04-29T05:56:29.382Z,11.80
2019-04-29T05:59:30.979Z,12.00
2019-04-29T06:02:52.122Z,12.00
2019-04-29T06:05:53.747Z,12.00
2019-04-29T06:08:55.191Z,12.00
2019-04-29T06:11:56.856Z,12.00
2019-04-29T06:14:58.245Z,12.00
2019-04-29T06:17:59.542Z,12.00
2019-04-29T06:21:08.842Z,12.10
2019-04-29T06:24:06.330Z,12.20
2019-04-29T06:27:07.698Z,12.20
2019-04-29T06:30:09.402Z,12.20
2019-04-29T06:33:10.934Z,12.20
2019-04-29T06:36:12.470Z,12.20
2019-04-29T06:39:13.829Z,12.30
2019-04-29T06:42:19.020Z,12.30
2019-04-29T06:45:18.491Z,12.30
2019-04-29T06:48:20.027Z,12.30
2019-04-29T06:51:21.512Z,12.20
2019-04-29T06:54:23.046Z,12.20
2019-04-29T06:57:24.437Z,12.10
2019-04-29T07:00:25.841Z,12.20
2019-04-29T07:03:27.149Z,12.30
2019-04-29T07:06:29.206Z,12.30
2019-04-29T07:09:30.870Z,12.40
2019-04-29T07:12:32.392Z,12.50
2019-04-29T07:15:33.933Z,12.50
2019-04-29T07:18:39.767Z,12.60
2019-04-29T07:21:41.953Z,12.70
2019-04-29T07:24:42.584Z,12.70
2019-04-29T07:27:44.591Z,12.80
2019-04-29T07:31:01.218Z,12.90
2019-04-29T07:33:49.062Z,13.10
2019-04-29T07:36:53.271Z,13.30
2019-04-29T07:39:53.741Z,13.50
2019-04-29T07:42:55.239Z,13.60
2019-04-29T07:46:16.467Z,13.70
2019-04-29T07:49:18.942Z,13.60
2019-04-29T07:52:20.316Z,13.60
2019-04-29T07:55:26.029Z,13.70
2019-04-29T07:58:27.383Z,13.60
2019-04-29T08:01:28.166Z,13.50
2019-04-29T08:04:30.166Z,13.40
2019-04-29T08:07:32.526Z,13.40
2019-04-29T08:10:34.312Z,13.40
2019-04-29T08:13:35.667Z,13.50
2019-04-29T08:16:37.318Z,13.70
2019-04-29T08:19:38.815Z,13.80
2019-04-29T08:22:40.693Z,13.90
2019-04-29T08:25:42.395Z,14.00
2019-04-29T08:28:44.341Z,14.10
2019-04-29T08:31:45.631Z,14.10
2019-04-29T08:34:47.543Z,14.10
2019-04-29T08:37:48.833Z,14.20
2019-04-29T08:40:51.720Z,14.20
2019-04-29T08:44:15.719Z,14.20
2019-04-29T08:47:23.678Z,14.10
2019-04-29T08:50:24.269Z,14.20
2019-04-29T08:53:26.161Z,14.10
2019-04-29T08:56:27.764Z,14.10
2019-04-29T08:59:29.073Z,14.10
2019-04-29T09:02:34.931Z,14.10
2019-04-29T09:05:34.103Z,14.10
2019-04-29T09:08:35.757Z,14.10
2019-04-29T09:11:37.130Z,14.10
2019-04-29T09:14:39.887Z,14.10
2019-04-29T09:17:41.467Z,14.00
2019-04-29T09:20:43.098Z,14.10
2019-04-29T09:23:44.708Z,14.10
2019-04-29T09:26:50.888Z,14.00
2019-04-29T09:29:54.215Z,14.00
2019-04-29T09:32:56.214Z,13.90
2019-04-29T09:35:57.972Z,14.00
2019-04-29T09:38:59.816Z,14.00
2019-04-29T09:42:08.162Z,14.10
2019-04-29T09:45:19.529Z,14.10
2019-04-29T09:48:21.020Z,14.00
2019-04-29T09:51:27.934Z,13.90
2019-04-29T09:54:25.870Z,13.90
2019-04-29T09:57:27.680Z,14.00
2019-04-29T10:00:40.837Z,14.10
2019-04-29T10:03:42.505Z,14.00
2019-04-29T10:06:45.717Z,14.10
2019-04-29T10:09:56.963Z,14.20
2019-04-29T10:12:53.767Z,14.20
2019-04-29T10:16:10.185Z,14.30
2019-04-29T10:19:16.793Z,14.30
2019-04-29T10:22:18.731Z,14.40
2019-04-29T10:25:21.156Z,14.40
2019-04-29T10:28:44.677Z,14.50
2019-04-29T10:31:46.101Z,14.60
2019-04-29T10:34:47.709Z,14.50
2019-04-29T10:37:49.407Z,14.40
2019-04-29T10:41:09.854Z,14.40
2019-04-29T10:44:22.745Z,14.60
2019-04-29T10:47:35.869Z,14.60
2019-04-29T10:50:47.100Z,14.60
2019-04-29T10:53:51.120Z,14.50
2019-04-29T10:56:51.410Z,14.40
2019-04-29T10:59:55.121Z,14.40
2019-04-29T11:02:56.875Z,14.40
2019-04-29T11:06:01.685Z,14.50
2019-04-29T11:09:14.496Z,14.60
2019-04-29T11:12:16.178Z,14.70
2019-04-29T11:15:19.979Z,14.70
2019-04-29T11:18:23.157Z,14.60
2019-04-29T11:21:29.370Z,14.70
2019-04-29T11:24:33.902Z,14.70
2019-04-29T11:27:49.528Z,14.80
2019-04-29T11:30:51.746Z,15.20
2019-04-29T11:33:56.560Z,15.80
2019-04-29T11:36:58.400Z,16.20
2019-04-29T11:40:00.798Z,16.30
2019-04-29T11:43:02.884Z,16.10
2019-04-29T11:46:04.934Z,15.80
2019-04-29T11:49:06.860Z,15.50
2019-04-29T11:52:10.205Z,15.30
2019-04-29T11:55:13.997Z,15.20
2019-04-29T11:58:18.775Z,15.20
2019-04-29T12:01:42.801Z,15.30
2019-04-29T12:04:44.788Z,15.40
2019-04-29T12:07:47.360Z,15.50
2019-04-29T12:11:05.938Z,15.40
2019-04-29T12:14:17.686Z,15.40
2019-04-29T12:17:21.115Z,15.60
2019-04-29T12:20:25.189Z,15.90
2019-04-29T12:23:26.799Z,16.20
2019-04-29T12:26:28.993Z,16.10
2019-04-29T12:29:32.017Z,16.30
2019-04-29T12:32:47.388Z,16.40
2019-04-29T12:36:09.341Z,16.20
2019-04-29T12:39:42.873Z,16.00
2019-04-29T12:42:54.840Z,15.90
2019-04-29T12:46:10.354Z,15.90
2019-04-29T12:49:13.748Z,16.00
2019-04-29T12:52:15.704Z,16.10
2019-04-29T12:55:42.830Z,16.30
2019-04-29T12:58:25.983Z,16.40
2019-04-29T13:01:51.443Z,16.40
2019-04-29T13:05:03.822Z,16.30
2019-04-29T13:08:07.795Z,16.20
2019-04-29T13:11:10.026Z,16.30
2019-04-29T13:14:11.940Z,16.30
2019-04-29T13:17:21.742Z,16.20
2019-04-29T13:20:23.669Z,16.20
2019-04-29T13:23:34.884Z,16.20
2019-04-29T13:26:33.361Z,16.20
2019-04-29T13:29:36.106Z,16.20
2019-04-29T13:32:36.092Z,16.20
2019-04-29T13:35:47.923Z,16.40
2019-04-29T13:38:41.692Z,16.60
2019-04-29T13:41:57.124Z,16.70
2019-04-29T13:45:12.875Z,16.80
2019-04-29T13:48:17.317Z,16.70
2019-04-29T13:51:35.764Z,16.80
2019-04-29T13:54:37.189Z,16.80
2019-04-29T13:57:37.547Z,16.90
2019-04-29T14:00:59.867Z,17.10
2019-04-29T14:07:23.210Z,17.80
2019-04-29T14:10:24.486Z,18.00
2019-04-29T14:13:26.459Z,17.90
2019-04-29T14:16:28.034Z,17.90
2019-04-29T14:19:40.983Z,18.10
2019-04-29T14:22:34.105Z,18.30
2019-04-29T14:25:36.788Z,18.20
2019-04-29T14:28:38.099Z,18.00
2019-04-29T14:31:39.817Z,18.10
2019-04-29T14:34:52.559Z,18.10
2019-04-29T14:38:00.092Z,18.10
2019-04-29T14:40:59.002Z,18.20
2019-04-29T14:44:08.686Z,18.40
2019-04-29T14:47:12.141Z,18.40
2019-04-29T14:50:16.403Z,18.20
2019-04-29T14:53:19.414Z,18.30
2019-04-29T14:56:21.680Z,18.10
2019-04-29T14:59:23.863Z,18.00
2019-04-29T15:02:27.545Z,17.90
2019-04-29T15:05:32.823Z,17.80
2019-04-29T15:08:36.195Z,17.50
2019-04-29T15:11:45.598Z,17.50
2019-04-29T15:14:49.202Z,17.50
2019-04-29T15:17:52.585Z,17.60
2019-04-29T15:21:06.068Z,17.60
2019-04-29T15:24:05.655Z,17.60
2019-04-29T15:27:07.331Z,17.60
2019-04-29T15:30:08.966Z,17.50
2019-04-29T15:33:11.121Z,17.50
2019-04-29T15:36:12.799Z,17.50
2019-04-29T15:39:14.336Z,17.60
2019-04-29T15:42:16.872Z,17.60
2019-04-29T15:45:18.221Z,17.60
2019-04-29T15:48:21.716Z,17.50
2019-04-29T15:51:23.603Z,17.40
2019-04-29T15:54:26.179Z,17.20
2019-04-29T15:57:27.841Z,17.10
2019-04-29T16:00:36.654Z,16.80
2019-04-29T16:03:37.046Z,16.50
2019-04-29T16:06:44.719Z,16.30
2019-04-29T16:10:01.170Z,16.20
2019-04-29T16:13:05.126Z,16.00
2019-04-29T16:16:06.536Z,15.80
2019-04-29T16:19:10.202Z,15.40
2019-04-29T16:22:13.080Z,15.10
2019-04-29T16:25:15.289Z,14.80
2019-04-29T16:28:17.689Z,14.60
2019-04-29T16:31:19.025Z,14.40
2019-04-29T16:34:20.435Z,14.20
2019-04-29T16:37:24.954Z,14.20
2019-04-29T16:40:33.793Z,14.10
2019-04-29T16:43:40.309Z,14.00
2019-04-29T16:46:42.581Z,13.80
2019-04-29T16:49:46.013Z,13.70
2019-04-29T16:52:48.329Z,13.50
2019-04-29T16:55:50.043Z,13.50
2019-04-29T16:58:51.899Z,13.40
2019-04-29T17:01:53.713Z,13.30
2019-04-29T17:04:56.204Z,13.20
2019-04-29T17:07:58.383Z,13.20
2019-04-29T17:11:05.480Z,13.10
2019-04-29T17:14:10.260Z,13.00
2019-04-29T17:17:13.131Z,13.00
2019-04-29T17:20:14.688Z,13.00
2019-04-29T17:23:23.874Z,13.00
2019-04-29T17:26:21.423Z,13.00
2019-04-29T17:29:49.298Z,13.00
2019-04-29T17:33:01.059Z,13.00
2019-04-29T17:36:03.740Z,13.00
2019-04-29T17:39:06.886Z,13.00
2019-04-29T17:42:09.185Z,13.00
2019-04-29T17:45:26.992Z,12.90
2019-04-29T17:48:18.605Z,12.90
2019-04-29T17:51:40.362Z,12.90
2019-04-29T17:54:46.886Z,12.80
2019-04-29T17:57:54.887Z,12.80
2019-04-29T18:00:59.496Z,12.70
2019-04-29T18:04:11.723Z,12.80
2019-04-29T18:07:15.409Z,12.80
2019-04-29T18:13:35.135Z,12.80
2019-04-29T18:16:39.463Z,12.80
2019-04-29T18:19:45.182Z,12.80
2019-04-29T18:23:05.890Z,12.80
2019-04-29T18:26:10.367Z,12.80
2019-04-29T18:29:16.077Z,12.80
2019-04-29T18:32:18.430Z,12.80
2019-04-29T18:35:20.033Z,12.80
2019-04-29T18:38:22.043Z,12.80
2019-04-29T18:41:28.041Z,12.80
2019-04-29T18:44:27.134Z,12.70
2019-04-29T18:47:34.805Z,12.70
2019-04-29T18:50:34.243Z,12.60
2019-04-29T18:53:35.715Z,12.50
2019-04-29T18:56:37.860Z,12.40
2019-04-29T18:59:42.186Z,12.40
2019-04-29T19:02:46.005Z,12.40
2019-04-29T19:05:55.250Z,12.40
2019-04-29T19:09:01.759Z,12.30
2019-04-29T19:12:00.726Z,12.30
2019-04-29T19:15:11.998Z,12.20
2019-04-29T19:18:19.650Z,12.20
2019-04-29T19:21:18.126Z,12.20
2019-04-29T19:24:20.679Z,12.10
2019-04-29T19:27:22.306Z,12.10
2019-04-29T19:30:29.022Z,12.10
2019-04-29T19:33:30.776Z,12.10
2019-04-29T19:36:35.030Z,12.10
2019-04-29T19:39:36.154Z,12.10
2019-04-29T19:42:39.786Z,12.10
2019-04-29T19:45:44.574Z,12.10
2019-04-29T19:48:46.926Z,12.10
2019-04-29T19:51:49.118Z,12.10
2019-04-29T19:54:50.584Z,12.10
2019-04-29T19:57:53.000Z,12.10
2019-04-29T20:01:10.655Z,12.10
2019-04-29T20:04:06.089Z,12.10
2019-04-29T20:07:10.659Z,12.10
2019-04-29T20:10:13.843Z,12.10
2019-04-29T20:13:17.636Z,12.10
2019-04-29T20:16:24.986Z,12.10
2019-04-29T20:19:27.440Z,12.10
2019-04-29T20:22:29.369Z,12.00
2019-04-29T20:25:38.057Z,12.00
2019-04-29T20:28:36.992Z,12.00
2019-04-29T20:31:39.287Z,12.00
2019-04-29T20:34:42.115Z,12.00
2019-04-29T20:37:47.458Z,12.00
2019-04-29T20:40:47.632Z,12.00
2019-04-29T20:43:49.141Z,12.00
2019-04-29T20:47:12.947Z,12.00
2019-04-29T20:49:54.502Z,12.00
2019-04-29T20:53:02.397Z,12.00
2019-04-29T20:56:12.258Z,11.90
2019-04-29T20:59:12.392Z,11.80
2019-04-29T21:02:13.098Z,11.80
2019-04-29T21:05:23.270Z,11.80
2019-04-29T21:08:19.372Z,11.80
2019-04-29T21:11:28.776Z,11.80
2019-04-29T21:14:34.086Z,11.80
2019-04-29T21:17:40.244Z,11.80
2019-04-29T21:20:39.221Z,11.90
2019-04-29T21:23:40.891Z,11.80
2019-04-29T21:26:44.398Z,11.80
2019-04-29T21:29:49.816Z,11.80
2019-04-29T21:32:49.270Z,11.80
2019-04-29T21:35:57.939Z,11.80
2019-04-29T21:39:17.838Z,11.80
2019-04-29T21:42:35.352Z,11.70
2019-04-29T21:45:33.046Z,11.70
2019-04-29T21:48:36.868Z,11.60
2019-04-29T21:51:37.649Z,11.70
2019-04-29T21:54:39.431Z,11.70
2019-04-29T21:57:40.730Z,11.60
2019-04-29T22:00:42.594Z,11.60
2019-04-29T22:03:44.071Z,11.60
2019-04-29T22:06:48.273Z,11.60
2019-04-29T22:09:50.335Z,11.60
2019-04-29T22:12:58.491Z,11.60
2019-04-29T22:16:06.006Z,11.60
2019-04-29T22:19:07.341Z,11.60
2019-04-29T22:22:08.823Z,11.60
2019-04-29T22:25:10.434Z,11.50
2019-04-29T22:28:15.903Z,11.40
2019-04-29T22:31:16.018Z,11.30
2019-04-29T22:34:19.326Z,11.20
2019-04-29T22:37:21.817Z,11.20
2019-04-29T22:40:24.972Z,11.10
2019-04-29T22:43:28.273Z,11.10
2019-04-29T22:46:29.745Z,11.10
2019-04-29T22:49:31.032Z,11.00
2019-04-29T22:52:34.857Z,11.00
2019-04-29T22:55:38.781Z,11.00
2019-04-29T22:58:43.400Z,10.90
2019-04-29T23:01:47.280Z,10.90
2019-04-29T23:04:49.060Z,10.90
2019-04-29T23:07:52.930Z,10.80
2019-04-29T23:10:52.216Z,10.80
2019-04-29T23:13:55.428Z,10.70
2019-04-29T23:16:56.882Z,10.60
2019-04-29T23:20:00.050Z,10.60
2019-04-29T23:23:12.441Z,10.60
2019-04-29T23:26:14.817Z,10.50
2019-04-29T23:29:17.041Z,10.50
2019-04-29T23:32:18.420Z,10.50
2019-04-29T23:35:19.993Z,10.50
2019-04-29T23:38:21.273Z,10.50
2019-04-29T23:41:27.637Z,10.50
2019-04-29T23:44:25.957Z,10.40
2019-04-29T23:47:27.431Z,10.40
2019-04-29T23:50:28.715Z,10.40
2019-04-29T23:53:30.173Z,10.40
2019-04-29T23:56:49.926Z,10.30
